Time;durP1;ratioP1;P1;durP2;ratioP2;P2;SDS_P1;SDS_P2;PMS_P1;PMS_P2;Temp;Humidity;BMP_temperature;BMP_pressure;BME280_temperature;BME280_humidity;BME280_pressure;Samples;Min_cycle;Max_cycle;Signal;HPM_P1;HPM_P2
2022/06/07 00:01:36;;;;;;;2.33;2.00;;;;;;;16.45;79.22;96521.50;1692240;84;20982;-82
2022/06/07 00:04:02;;;;;;;2.40;1.98;;;;;;;16.44;79.41;96517.78;1722517;83;20949;-82
2022/06/07 00:06:28;;;;;;;2.08;1.70;;;;;;;16.43;79.47;96514.36;1727730;82;21013;-82
2022/06/07 00:08:54;;;;;;;3.37;1.82;;;;;;;16.45;79.59;96512.83;1727401;82;20934;-82
2022/06/07 00:11:20;;;;;;;2.30;1.75;;;;;;;16.46;79.83;96506.56;1727227;82;20997;-82
2022/06/07 00:13:46;;;;;;;2.33;2.12;;;;;;;16.44;79.85;96509.91;1727602;82;21299;-82
2022/06/07 00:16:13;;;;;;;2.62;2.15;;;;;;;16.40;79.80;96510.03;1735802;82;20952;-82
2022/06/07 00:18:39;;;;;;;3.85;2.22;;;;;;;16.34;79.90;96505.14;1701732;83;21067;-83
2022/06/07 00:21:05;;;;;;;2.35;2.10;;;;;;;16.30;79.95;96507.11;1694066;84;21036;-82
2022/06/07 00:23:30;;;;;;;2.58;2.25;;;;;;;16.28;79.92;96511.77;1692238;84;20952;-82
2022/06/07 00:25:56;;;;;;;2.33;2.10;;;;;;;16.26;79.96;96505.40;1722357;83;20977;-82
2022/06/07 00:28:22;;;;;;;2.47;1.77;;;;;;;16.26;80.07;96505.91;1715091;83;20910;-82
2022/06/07 00:30:48;;;;;;;2.40;2.00;;;;;;;16.25;80.16;96503.80;1722686;83;20979;-82
2022/06/07 00:33:13;;;;;;;2.00;1.80;;;;;;;16.24;80.19;96502.19;1730747;81;20936;-82
2022/06/07 00:35:39;;;;;;;2.27;2.05;;;;;;;16.25;80.40;96503.80;1724347;83;21986;-82
2022/06/07 00:38:05;;;;;;;3.10;2.00;;;;;;;16.23;80.55;96500.59;1729299;82;20990;-82
2022/06/07 00:40:32;;;;;;;2.52;2.33;;;;;;;16.18;80.45;96494.68;1741925;82;20975;-82
2022/06/07 00:42:58;;;;;;;3.08;2.05;;;;;;;16.16;80.63;96492.78;1729161;82;20998;-83
2022/06/07 00:45:24;;;;;;;3.22;1.80;;;;;;;16.12;80.88;96479.82;1729942;83;20951;-82
2022/06/07 00:47:50;;;;;;;2.20;2.00;;;;;;;16.09;80.84;96488.09;1728187;82;21041;-82
2022/06/07 00:50:47;;;;;;;2.02;1.80;;;;;;;16.06;80.87;96484.59;1736218;82;20972;-82
2022/06/07 00:53:25;;;;;;;2.20;2.00;;;;;;;16.05;81.02;96484.30;1728837;82;21056;-82
2022/06/07 00:55:52;;;;;;;3.02;1.80;;;;;;;16.02;80.95;96481.30;1723842;82;20955;-83
2022/06/07 00:58:19;;;;;;;2.40;1.60;;;;;;;16.01;81.04;96486.25;1733263;82;21002;-83
2022/06/07 01:00:45;;;;;;;1.72;1.62;;;;;;;16.00;81.06;96481.52;1735991;82;20997;-82
2022/06/07 01:03:11;;;;;;;1.92;1.65;;;;;;;15.99;81.04;96475.98;1735796;82;21030;-82
2022/06/07 01:05:38;;;;;;;2.30;2.00;;;;;;;15.97;81.06;96477.22;1729546;82;20994;-82
2022/06/07 01:10:48;;;;;;;2.02;1.50;;;;;;;15.90;81.10;96470.70;1692712;84;21027;-82
2022/06/07 01:13:18;;;;;;;1.95;1.37;;;;;;;15.88;81.02;96464.87;1714309;83;21432;-82
2022/06/07 01:15:45;;;;;;;2.83;1.30;;;;;;;15.87;80.95;96467.20;1739787;82;20954;-83
2022/06/07 01:18:13;;;;;;;1.75;1.32;;;;;;;15.85;80.93;96459.55;1725949;82;21062;-82
2022/06/07 01:20:40;;;;;;;1.15;1.00;;;;;;;15.86;80.82;96460.35;1725819;82;20986;-82
2022/06/07 01:23:07;;;;;;;1.47;1.10;;;;;;;15.86;80.61;96457.73;1741798;82;20954;-82
2022/06/07 01:25:34;;;;;;;1.90;1.47;;;;;;;15.83;80.55;96457.66;1725956;82;20907;-82
2022/06/07 01:27:59;;;;;;;1.47;1.37;;;;;;;15.81;80.63;96453.64;1745186;82;20998;-82
2022/06/07 01:30:25;;;;;;;1.60;1.37;;;;;;;15.78;80.74;96452.73;1727031;83;20923;-82
2022/06/07 01:32:52;;;;;;;1.67;1.05;;;;;;;15.75;80.84;96455.28;1685509;83;21035;-82
2022/06/07 01:35:18;;;;;;;1.80;1.20;;;;;;;15.73;80.92;96446.83;1690599;83;21353;-82
2022/06/07 01:37:43;;;;;;;1.98;1.30;;;;;;;15.72;81.03;96446.54;1692306;83;20929;-82
2022/06/07 01:42:55;;;;;;;1.87;1.30;;;;;;;15.73;80.92;96449.45;1660506;84;21365;-81
2022/06/07 01:45:21;;;;;;;1.67;1.57;;;;;;;15.74;80.95;96443.70;1699144;83;20943;-82
2022/06/07 01:47:49;;;;;;;2.15;1.37;;;;;;;15.72;80.78;96442.61;1702949;83;21142;-83
2022/06/07 01:50:14;;;;;;;2.40;1.90;;;;;;;15.70;80.79;96439.91;1741301;82;21113;-82
2022/06/07 01:52:40;;;;;;;2.00;1.80;;;;;;;15.58;80.98;96424.03;1721011;83;20992;-83
2022/06/07 01:55:07;;;;;;;1.87;1.67;;;;;;;15.64;80.88;96435.02;1710434;82;21024;-83
2022/06/07 01:57:33;;;;;;;2.62;2.10;;;;;;;15.63;80.92;96432.62;1718618;82;21006;-83
2022/06/07 02:00:00;;;;;;;1.90;1.70;;;;;;;15.63;80.86;96443.09;1721228;83;21602;-83
2022/06/07 02:02:27;;;;;;;1.57;1.47;;;;;;;15.61;80.79;96429.67;1720560;83;20938;-83
2022/06/07 02:04:54;;;;;;;1.80;1.70;;;;;;;15.61;80.86;96438.04;1726021;82;20982;-82
2022/06/07 02:07:20;;;;;;;2.22;1.65;;;;;;;15.61;80.81;96430.98;1740909;82;20999;-82
2022/06/07 02:09:46;;;;;;;2.58;1.60;;;;;;;15.60;80.79;96428.07;1709434;82;21053;-82
2022/06/07 02:12:12;;;;;;;1.98;1.87;;;;;;;15.60;80.80;96424.65;1726885;82;20918;-82
2022/06/07 02:14:39;;;;;;;2.20;2.00;;;;;;;15.56;80.89;96422.94;1726272;82;21078;-83
2022/06/07 02:17:05;;;;;;;2.10;2.00;;;;;;;15.53;80.98;96415.52;1726104;82;20939;-82
2022/06/07 02:19:31;;;;;;;2.05;1.85;;;;;;;15.51;80.95;96416.73;1727726;82;21090;-82
2022/06/07 02:21:58;;;;;;;3.50;2.00;;;;;;;15.50;80.85;96416.45;1727661;82;21369;-83
2022/06/07 02:24:24;;;;;;;2.33;2.12;;;;;;;15.47;80.83;96408.52;1720220;82;20912;-83
2022/06/07 02:26:59;;;;;;;1.65;1.55;;;;;;;15.46;80.80;96407.41;1737782;82;20986;-82
2022/06/07 02:29:32;;;;;;;2.37;1.80;;;;;;;15.43;80.94;96400.76;1726878;82;21043;-82
2022/06/07 02:32:09;;;;;;;2.15;1.95;;;;;;;15.43;81.00;96403.89;1738282;82;20942;-82
2022/06/07 02:34:34;;;;;;;3.35;1.82;;;;;;;15.41;80.93;96396.75;1701928;83;20963;-82
2022/06/07 02:37:02;;;;;;;2.30;1.90;;;;;;;15.40;80.83;96399.88;1729089;82;21305;-82
2022/06/07 02:39:28;;;;;;;2.77;2.10;;;;;;;15.40;80.94;96402.50;1719715;83;21030;-82
2022/06/07 02:41:54;;;;;;;2.75;2.55;;;;;;;15.39;80.87;96399.59;1702765;83;21095;-82
2022/06/07 02:44:20;;;;;;;2.90;2.70;;;;;;;15.42;81.00;96404.91;1709288;83;21421;-82
2022/06/07 02:46:46;;;;;;;2.20;2.00;;;;;;;15.45;81.05;96401.34;1725981;82;20966;-83
2022/06/07 02:49:12;;;;;;;2.17;1.98;;;;;;;15.48;80.95;96407.50;1722771;83;21372;-82
2022/06/07 02:51:38;;;;;;;2.70;2.40;;;;;;;15.49;80.77;96411.72;1722098;82;21318;-82
2022/06/07 02:54:04;;;;;;;2.22;1.98;;;;;;;15.52;80.72;96415.22;1719593;82;21046;-82
2022/06/07 02:56:30;;;;;;;2.65;2.10;;;;;;;15.54;80.58;96412.38;1717905;82;21419;-83
2022/06/07 02:58:55;;;;;;;2.22;1.95;;;;;;;15.51;80.52;96409.69;1704815;83;21012;-82
2022/06/07 03:01:23;;;;;;;2.40;2.00;;;;;;;15.49;80.51;96409.61;1704592;83;21101;-82
2022/06/07 03:03:48;;;;;;;3.02;2.00;;;;;;;15.46;80.52;96415.27;1726235;82;20955;-83
2022/06/07 03:06:14;;;;;;;2.02;1.70;;;;;;;15.43;80.58;96409.92;1731091;82;21386;-83
2022/06/07 03:08:40;;;;;;;2.15;1.95;;;;;;;15.43;80.72;96414.36;1739986;82;20930;-83
2022/06/07 03:11:06;;;;;;;2.55;2.10;;;;;;;15.41;80.77;96409.34;1715557;83;21031;-83
2022/06/07 03:13:31;;;;;;;2.58;2.30;;;;;;;15.43;80.78;96411.23;1725726;82;21374;-82
2022/06/07 03:15:57;;;;;;;2.00;1.90;;;;;;;15.42;80.85;96412.25;1744019;82;20965;-83
2022/06/07 03:18:23;;;;;;;2.42;2.02;;;;;;;15.46;80.98;96412.14;1705147;83;20931;-83
2022/06/07 03:20:51;;;;;;;3.08;2.10;;;;;;;15.49;81.10;96414.84;1742297;82;20994;-82
2022/06/07 03:23:17;;;;;;;2.50;2.30;;;;;;;15.49;81.23;96410.41;1727252;82;21381;-83
2022/06/07 03:25:43;;;;;;;2.65;2.45;;;;;;;15.48;81.32;96408.80;1725470;82;20903;-82
2022/06/07 03:28:08;;;;;;;3.15;2.45;;;;;;;15.47;81.53;96412.44;1725753;82;21025;-82
2022/06/07 03:30:34;;;;;;;2.70;1.90;;;;;;;15.47;81.88;96411.13;1725582;82;20994;-82
2022/06/07 03:33:00;;;;;;;2.02;1.77;;;;;;;15.48;81.98;96408.00;1725767;82;20935;-82
2022/06/07 03:35:26;;;;;;;2.25;2.05;;;;;;;15.48;82.01;96410.11;1725677;82;21013;-82
2022/06/07 03:37:51;;;;;;;2.50;1.98;;;;;;;15.50;82.11;96410.70;1725619;82;20974;-82
2022/06/07 03:40:42;;;;;;;3.58;1.90;;;;;;;15.50;82.14;96403.36;1725591;82;21029;-82
2022/06/07 03:42:45;;;;;;;2.00;1.80;;;;;;;15.52;82.26;96409.98;1702366;83;21019;-83
2022/06/07 03:45:11;;;;;;;2.05;1.87;;;;;;;15.55;82.31;96412.67;1725859;82;20943;-82
2022/06/07 03:47:37;;;;;;;2.15;1.95;;;;;;;15.56;82.47;96403.80;1725785;82;21355;-82
2022/06/07 03:50:04;;;;;;;2.20;2.00;;;;;;;15.59;82.63;96409.44;1721849;82;21058;-82
2022/06/07 03:52:30;;;;;;;3.20;2.10;;;;;;;15.62;82.71;96408.25;1725434;82;20954;-82
2022/06/07 03:54:56;;;;;;;2.75;2.12;;;;;;;15.65;82.91;96408.32;1720299;83;21016;-82
2022/06/07 03:57:22;;;;;;;2.55;1.95;;;;;;;15.67;82.99;96402.36;1721072;83;20991;-82
2022/06/07 03:59:47;;;;;;;2.65;2.20;;;;;;;15.68;83.05;96402.66;1712559;82;20980;-82
2022/06/07 04:02:14;;;;;;;2.50;2.30;;;;;;;15.70;83.13;96407.97;1705903;83;21049;-82
2022/06/07 04:04:40;;;;;;;2.75;1.87;;;;;;;15.70;83.23;96401.42;1730901;82;20990;-82
2022/06/07 04:09:51;;;;;;;2.33;2.12;;;;;;;15.72;83.43;96402.00;1704345;83;21073;-82
2022/06/07 04:12:17;;;;;;;2.15;2.02;;;;;;;15.72;83.50;96399.38;1730733;82;21015;-82
2022/06/07 04:14:44;;;;;;;2.40;2.20;;;;;;;15.74;83.58;96396.55;1741825;82;21033;-82
2022/06/07 04:17:11;;;;;;;2.60;2.40;;;;;;;15.75;83.72;96396.33;1725500;82;20954;-82
2022/06/07 04:19:37;;;;;;;1.85;1.75;;;;;;;15.78;83.85;96391.17;1710327;83;20978;-83
2022/06/07 04:22:03;;;;;;;2.75;2.37;;;;;;;15.79;84.00;96395.42;1713222;83;21325;-82
2022/06/07 04:24:29;;;;;;;2.22;2.02;;;;;;;15.81;84.08;96393.39;1703933;83;20959;-83
2022/06/07 04:26:55;;;;;;;2.52;2.12;;;;;;;15.81;84.09;96395.50;1726101;82;21349;-83
2022/06/07 04:29:20;;;;;;;2.20;2.00;;;;;;;15.88;84.15;96392.30;1743704;82;21021;-83
2022/06/07 04:31:46;;;;;;;2.98;1.90;;;;;;;15.94;83.92;96395.08;1705122;83;21008;-83
2022/06/07 04:34:12;;;;;;;2.62;2.00;;;;;;;15.97;83.83;96392.05;1728727;82;20931;-83
2022/06/07 04:36:37;;;;;;;2.30;2.10;;;;;;;15.98;83.78;96385.79;1740346;82;20931;-83
2022/06/07 04:39:05;;;;;;;2.22;2.02;;;;;;;15.98;83.77;96389.20;1733855;82;21385;-82
2022/06/07 04:41:30;;;;;;;2.02;1.82;;;;;;;15.98;83.79;96387.90;1746893;82;20928;-83
2022/06/07 04:43:56;;;;;;;2.83;2.08;;;;;;;15.99;83.88;96393.44;1726608;82;21394;-82
2022/06/07 04:46:23;;;;;;;2.50;2.30;;;;;;;16.01;83.97;96387.97;1705528;83;21030;-83
2022/06/07 04:48:49;;;;;;;1.80;1.67;;;;;;;16.02;84.01;96384.33;1735049;82;21445;-82
2022/06/07 04:51:22;;;;;;;2.10;1.90;;;;;;;16.05;84.11;96389.14;1712704;82;20915;-83
2022/06/07 04:53:48;;;;;;;2.62;2.20;;;;;;;16.08;84.18;96392.63;1736882;82;21000;-82
2022/06/07 04:56:19;;;;;;;2.15;1.95;;;;;;;16.14;84.22;96399.66;1725351;82;20996;-82
2022/06/07 04:58:45;;;;;;;2.55;2.30;;;;;;;16.20;84.28;96393.53;1691241;84;21032;-83
2022/06/07 05:01:17;;;;;;;2.27;2.08;;;;;;;16.23;84.15;96398.34;1721640;83;21375;-82
2022/06/07 05:03:43;;;;;;;2.17;1.98;;;;;;;16.27;84.14;96402.16;1721361;83;20977;-83
2022/06/07 05:06:18;;;;;;;2.45;1.92;;;;;;;16.32;84.20;96408.86;1735824;82;20961;-82
2022/06/07 05:08:45;;;;;;;1.70;1.60;;;;;;;16.36;84.26;96405.28;1736378;82;21099;-82
2022/06/07 05:11:11;;;;;;;1.85;1.75;;;;;;;16.37;84.28;96402.44;1743012;82;20966;-82
2022/06/07 05:13:36;;;;;;;2.17;2.02;;;;;;;16.41;84.38;96407.53;1723210;82;21334;-83
2022/06/07 05:16:03;;;;;;;2.60;2.05;;;;;;;16.46;84.55;96410.33;1728688;82;20971;-83
2022/06/07 05:18:29;;;;;;;2.25;2.05;;;;;;;16.50;84.56;96409.38;1726147;82;21005;-83
2022/06/07 05:20:55;;;;;;;2.92;1.87;;;;;;;16.54;84.58;96405.29;1718409;82;20955;-83
2022/06/07 05:23:20;;;;;;;2.70;2.30;;;;;;;16.59;84.75;96411.98;1718701;82;21018;-83
2022/06/07 05:25:59;;;;;;;2.33;2.12;;;;;;;16.69;85.17;96418.08;1722306;83;21004;-82
2022/06/07 05:28:25;;;;;;;2.30;2.10;;;;;;;16.69;85.17;96418.08;1702700;83;21355;-83
2022/06/07 05:30:51;;;;;;;2.83;2.42;;;;;;;16.73;85.04;96414.79;1725619;82;20956;-83
2022/06/07 05:33:16;;;;;;;2.47;2.27;;;;;;;16.80;85.02;96418.67;1720971;83;21293;-83
2022/06/07 05:35:42;;;;;;;2.40;2.20;;;;;;;16.85;85.26;96414.86;1686886;84;21600;-83
2022/06/07 05:38:11;;;;;;;2.40;2.00;;;;;;;16.92;85.33;96412.98;1699921;84;21003;-83
2022/06/07 05:40:36;;;;;;;2.75;2.55;;;;;;;16.98;85.44;96405.52;1705375;83;21376;-82
2022/06/07 05:43:03;;;;;;;2.80;2.50;;;;;;;17.04;85.36;96411.19;1726575;82;20943;-83
2022/06/07 05:45:31;;;;;;;2.27;2.02;;;;;;;17.11;85.40;96407.19;1727035;82;20954;-83
2022/06/07 05:47:57;;;;;;;2.75;2.17;;;;;;;17.19;85.29;96416.05;1729835;82;20934;-83
2022/06/07 05:50:25;;;;;;;2.25;2.05;;;;;;;17.25;85.39;96408.62;1723501;82;21106;-83
2022/06/07 05:52:51;;;;;;;1.87;1.77;;;;;;;17.33;85.34;96405.66;1721271;82;21004;-83
2022/06/07 05:55:17;;;;;;;2.83;2.12;;;;;;;17.40;85.40;96400.30;1705866;83;21071;-83
2022/06/07 05:57:49;;;;;;;2.10;1.82;;;;;;;17.51;85.46;96405.31;1726395;82;21424;-82
2022/06/07 06:00:12;;;;;;;2.55;2.17;;;;;;;17.59;84.99;96404.49;1716340;82;20970;-83
2022/06/07 06:02:37;;;;;;;2.12;2.00;;;;;;;17.69;84.93;96402.13;1705244;83;20940;-83
2022/06/07 06:05:04;;;;;;;2.30;2.10;;;;;;;17.80;84.78;96395.81;1730828;82;20994;-82
2022/06/07 06:07:30;;;;;;;2.77;2.58;;;;;;;17.93;84.19;96394.30;1730992;82;21278;-82
2022/06/07 06:12:40;;;;;;;2.37;1.90;;;;;;;18.20;84.44;96395.43;1731299;82;21360;-83
2022/06/07 06:15:06;;;;;;;2.35;2.05;;;;;;;18.30;83.80;96393.03;1705605;83;20951;-83
2022/06/07 06:17:32;;;;;;;4.28;2.40;;;;;;;18.39;83.79;96393.50;1726385;82;20921;-83
2022/06/07 06:19:58;;;;;;;3.05;2.20;;;;;;;18.52;83.58;96395.06;1741808;82;21072;-83
2022/06/07 06:22:24;;;;;;;5.20;2.30;;;;;;;18.67;83.59;96397.24;1705358;83;22106;-83
2022/06/07 06:24:49;;;;;;;3.70;2.40;;;;;;;18.84;83.15;96400.23;1682920;83;21006;-82
2022/06/07 06:27:15;;;;;;;3.33;2.58;;;;;;;19.02;81.28;96397.95;1712056;82;20998;-82
2022/06/07 06:29:41;;;;;;;3.05;2.75;;;;;;;19.22;81.62;96398.87;1740516;82;21365;-82
2022/06/07 06:32:08;;;;;;;3.10;2.80;;;;;;;19.38;81.30;96395.47;1727672;82;20949;-82
2022/06/07 06:34:33;;;;;;;4.60;3.50;;;;;;;19.52;80.40;96395.16;1705421;83;20947;-83
2022/06/07 06:36:59;;;;;;;3.47;2.98;;;;;;;19.68;79.61;96397.84;1725690;82;21420;-82
2022/06/07 06:39:25;;;;;;;4.03;3.65;;;;;;;19.86;78.04;96392.88;1725771;82;21349;-82
2022/06/07 06:41:51;;;;;;;4.22;3.83;;;;;;;20.05;77.96;96394.75;1735373;82;20914;-82
2022/06/07 06:44:16;;;;;;;4.72;4.33;;;;;;;20.20;77.80;96395.50;1707955;83;20952;-82
2022/06/07 06:46:45;;;;;;;4.15;3.75;;;;;;;20.33;77.47;96391.97;1734915;82;21389;-82
2022/06/07 06:49:14;;;;;;;3.80;3.47;;;;;;;20.48;76.58;96390.62;1727459;82;21078;-83
2022/06/07 06:51:41;;;;;;;3.47;3.17;;;;;;;20.62;75.46;96389.22;1672344;84;21422;-83
2022/06/07 06:54:07;;;;;;;4.50;3.47;;;;;;;20.74;74.74;96387.80;1672247;84;21022;-82
2022/06/07 06:56:33;;;;;;;3.50;3.20;;;;;;;20.89;75.19;96394.58;1673085;84;20987;-82
2022/06/07 06:58:59;;;;;;;3.77;3.02;;;;;;;21.09;74.40;96392.69;1672431;84;20994;-83
2022/06/07 07:01:29;;;;;;;3.20;2.72;;;;;;;21.23;73.74;96389.94;1673628;84;21385;-82
2022/06/07 07:03:55;;;;;;;3.60;3.30;;;;;;;21.30;73.63;96389.23;1676961;84;21024;-83
2022/06/07 07:06:21;;;;;;;3.83;3.20;;;;;;;21.33;71.99;96390.61;1676616;84;20982;-82
2022/06/07 07:08:48;;;;;;;3.42;3.12;;;;;;;21.43;72.60;96390.69;1673366;85;21003;-82
2022/06/07 07:11:19;;;;;;;4.00;3.60;;;;;;;21.55;73.02;96390.81;1674929;85;20998;-82
2022/06/07 07:13:45;;;;;;;4.05;3.62;;;;;;;21.69;72.49;96383.27;1690031;84;21007;-82
2022/06/07 07:16:21;;;;;;;3.00;2.80;;;;;;;21.82;70.99;96382.86;1689757;84;20967;-82
2022/06/07 07:18:47;;;;;;;3.30;3.00;;;;;;;21.91;70.88;96385.81;1670789;85;20986;-82
2022/06/07 07:21:18;;;;;;;3.67;3.20;;;;;;;21.93;70.48;96385.03;1675414;84;21385;-82
2022/06/07 07:23:44;;;;;;;4.08;3.45;;;;;;;21.93;70.98;96386.89;1675482;84;21026;-82
2022/06/07 07:26:15;;;;;;;4.80;4.40;;;;;;;21.98;70.93;96385.63;1672485;84;21050;-82
2022/06/07 07:28:41;;;;;;;4.08;3.67;;;;;;;22.00;70.71;96382.99;1688779;84;21512;-82
2022/06/07 07:31:10;;;;;;;3.72;3.35;;;;;;;21.96;69.96;96381.09;1668772;85;20999;-82
2022/06/07 07:33:36;;;;;;;6.00;4.10;;;;;;;21.94;70.25;96375.25;1673401;84;21015;-81
2022/06/07 07:36:03;;;;;;;4.00;3.70;;;;;;;21.88;70.06;96375.22;1671257;85;21828;-82
2022/06/07 07:38:29;;;;;;;4.10;3.70;;;;;;;21.86;70.38;96373.89;1671916;85;21418;-82
2022/06/07 07:40:54;;;;;;;3.52;3.22;;;;;;;21.92;70.93;96373.39;1672576;85;20995;-82
2022/06/07 07:43:20;;;;;;;5.80;3.33;;;;;;;21.93;70.48;96364.41;1674156;85;21010;-83
2022/06/07 07:45:54;;;;;;;3.72;3.27;;;;;;;21.93;71.02;96366.52;1672906;85;21046;-82
2022/06/07 07:48:21;;;;;;;3.77;3.30;;;;;;;21.93;71.22;96362.55;1689969;84;20951;-82
2022/06/07 07:50:47;;;;;;;4.28;3.62;;;;;;;21.92;70.50;96360.16;1707172;82;21008;-83
2022/06/07 07:53:13;;;;;;;3.70;3.40;;;;;;;21.95;70.63;96358.33;1724211;82;20982;-82
2022/06/07 07:55:47;;;;;;;4.45;3.70;;;;;;;21.96;69.94;96358.59;1708749;83;20970;-82
2022/06/07 07:58:13;;;;;;;3.75;3.45;;;;;;;21.97;70.12;96364.19;1729106;82;22051;-82
2022/06/07 08:00:45;;;;;;;4.25;3.85;;;;;;;22.02;70.28;96357.07;1729296;82;21029;-83
2022/06/07 08:03:11;;;;;;;5.40;3.90;;;;;;;22.04;69.33;96358.14;1707001;83;20959;-82
2022/06/07 08:05:36;;;;;;;4.58;3.77;;;;;;;21.98;69.09;96356.52;1709391;83;21010;-82
2022/06/07 08:08:02;;;;;;;4.55;3.65;;;;;;;21.91;69.04;96357.25;1725105;82;20978;-82
2022/06/07 08:10:29;;;;;;;4.60;3.02;;;;;;;21.87;70.83;96354.31;1726326;82;21030;-82
2022/06/07 08:12:58;;;;;;;4.22;3.12;;;;;;;21.84;71.08;96355.63;1706781;83;21380;-82
2022/06/07 08:15:25;;;;;;;3.75;3.02;;;;;;;21.78;71.46;96360.59;1707799;83;21365;-82
2022/06/07 08:17:52;;;;;;;3.80;2.83;;;;;;;21.73;71.20;96356.59;1708524;83;21073;-82
2022/06/07 08:20:20;;;;;;;3.52;3.22;;;;;;;21.63;70.82;96359.67;1705532;83;21476;-82
2022/06/07 08:22:46;;;;;;;3.83;3.40;;;;;;;21.61;71.49;96356.48;1734426;82;20955;-82
2022/06/07 08:25:12;;;;;;;5.85;4.90;;;;;;;21.56;71.55;96356.72;1727812;82;20974;-83
2022/06/07 08:27:38;;;;;;;14.70;10.60;;;;;;;21.56;70.87;96352.75;1706573;83;21289;-82
2022/06/07 08:30:08;;;;;;;19.80;16.65;;;;;;;21.61;71.73;96360.45;1730118;82;21413;-84
2022/06/07 08:32:34;;;;;;;14.23;12.73;;;;;;;21.57;70.69;96363.59;1721830;82;21002;-83
2022/06/07 08:37:44;;;;;;;8.43;7.65;;;;;;;21.49;68.89;96357.98;1705649;83;21121;-83
2022/06/07 08:40:15;;;;;;;5.40;4.90;;;;;;;21.47;68.92;96360.85;1723467;82;21026;-83
2022/06/07 08:42:46;;;;;;;4.10;3.70;;;;;;;21.46;69.92;96356.62;1705765;82;21003;-82
2022/06/07 08:45:22;;;;;;;4.60;3.58;;;;;;;21.43;71.34;96353.16;1727374;82;20927;-83
2022/06/07 08:47:52;;;;;;;3.40;3.10;;;;;;;21.58;71.71;96357.78;1728904;82;21431;-82
2022/06/07 08:50:26;;;;;;;3.55;3.25;;;;;;;21.97;71.64;96355.73;1726956;82;21058;-83
2022/06/07 08:52:56;;;;;;;3.80;3.30;;;;;;;22.27;71.05;96352.48;1727211;82;20974;-83
2022/06/07 08:55:32;;;;;;;3.40;2.95;;;;;;;22.33;70.15;96350.15;1729154;82;21061;-83
2022/06/07 08:58:02;;;;;;;3.50;3.20;;;;;;;22.59;69.67;96351.05;1704694;83;20983;-83
2022/06/07 09:00:32;;;;;;;3.98;3.52;;;;;;;22.67;69.28;96343.16;1723804;82;20970;-83
2022/06/07 09:03:46;;;;;;;4.17;3.77;;;;;;;22.48;68.94;96342.81;1722599;82;21054;-83
2022/06/07 09:06:20;;;;;;;3.90;3.55;;;;;;;22.65;69.73;96342.09;1708380;83;21050;-82
2022/06/07 09:08:50;;;;;;;3.95;3.62;;;;;;;22.92;69.11;96346.44;1725698;82;20943;-82
2022/06/07 09:14:30;;;;;;;4.05;3.75;;;;;;;22.85;66.54;96343.25;1708604;83;21094;-82
2022/06/07 09:16:56;;;;;;;3.92;3.58;;;;;;;22.90;66.41;96338.75;1725983;82;20955;-83
2022/06/07 09:19:26;;;;;;;3.75;3.42;;;;;;;23.08;66.97;96326.08;1726700;82;20973;-82
2022/06/07 09:21:52;;;;;;;3.98;3.67;;;;;;;23.24;67.34;96321.06;1727762;82;21055;-83
2022/06/07 09:24:36;;;;;;;4.28;3.83;;;;;;;23.45;65.73;96328.53;1729903;82;20961;-83
2022/06/07 09:27:19;;;;;;;5.55;3.83;;;;;;;23.64;66.34;96321.66;1722417;82;21298;-83
2022/06/07 09:29:56;;;;;;;4.42;4.03;;;;;;;23.84;63.95;96318.99;1706989;83;20998;-83
2022/06/07 09:32:26;;;;;;;5.08;3.72;;;;;;;23.98;63.44;96316.59;1702099;83;21718;-83
2022/06/07 09:35:03;;;;;;;4.35;3.95;;;;;;;24.16;63.80;96312.57;1704368;83;20989;-83
2022/06/07 09:37:34;;;;;;;4.20;3.90;;;;;;;24.32;62.12;96305.39;1728137;82;21025;-83
2022/06/07 09:40:24;;;;;;;3.87;3.58;;;;;;;24.44;61.55;96304.02;1723853;82;20982;-83
2022/06/07 09:42:55;;;;;;;4.55;3.50;;;;;;;24.55;63.79;96301.56;1677223;83;21400;-83
2022/06/07 09:45:27;;;;;;;4.10;3.80;;;;;;;24.69;62.27;96300.98;1704674;83;21006;-83
2022/06/07 09:47:53;;;;;;;3.62;3.33;;;;;;;24.76;62.87;96300.17;1725222;82;20951;-83
2022/06/07 09:50:34;;;;;;;3.85;3.52;;;;;;;24.91;63.02;96296.64;1731799;82;21098;-83
2022/06/07 09:53:10;;;;;;;3.50;3.20;;;;;;;25.00;61.17;96291.81;1728797;82;21433;-83
2022/06/07 09:55:41;;;;;;;3.55;3.20;;;;;;;25.12;60.39;96280.31;1701614;83;21349;-82
2022/06/07 09:58:41;;;;;;;4.67;3.30;;;;;;;25.17;59.79;96280.01;1704250;83;21243;-83
2022/06/07 10:01:27;;;;;;;3.47;3.17;;;;;;;25.25;60.89;96278.89;1723289;82;21387;-84
2022/06/07 10:04:25;;;;;;;4.50;3.12;;;;;;;25.35;59.07;96270.03;1727869;82;20958;-83
2022/06/07 10:07:02;;;;;;;3.87;3.20;;;;;;;25.47;59.51;96265.69;1694614;83;20921;-83
2022/06/07 10:09:51;;;;;;;3.20;2.90;;;;;;;25.46;60.08;96262.77;1728226;82;20970;-83
2022/06/07 10:12:31;;;;;;;3.40;3.10;;;;;;;25.54;60.67;96262.95;1735186;82;20998;-83
2022/06/07 10:15:12;;;;;;;3.33;3.10;;;;;;;25.65;58.24;96255.14;1726575;82;20956;-83
2022/06/07 10:18:13;;;;;;;3.98;3.10;;;;;;;25.72;58.57;96238.89;1712760;83;21461;-83
2022/06/07 10:20:48;;;;;;;3.57;3.07;;;;;;;25.87;58.76;96257.88;1727833;82;21065;-83
2022/06/07 10:23:51;;;;;;;3.47;3.17;;;;;;;26.04;56.96;96251.61;1732003;82;20973;-83
2022/06/07 10:27:13;;;;;;;3.58;3.27;;;;;;;26.04;56.96;96251.61;1726844;82;21447;-83
2022/06/07 10:30:15;;;;;;;3.50;3.20;;;;;;;25.91;56.93;96241.63;1695460;83;21012;-83
2022/06/07 10:32:52;;;;;;;4.50;2.80;;;;;;;25.52;55.22;96250.47;1724461;82;20948;-83
2022/06/07 10:35:53;;;;;;;3.40;3.20;;;;;;;25.24;57.21;96248.59;1708590;83;21409;-83
2022/06/07 10:38:30;;;;;;;4.25;3.27;;;;;;;25.09;57.01;96251.63;1731929;82;20974;-83
2022/06/07 10:41:13;;;;;;;3.50;3.20;;;;;;;24.92;59.03;96249.06;1724843;82;20990;-83
2022/06/07 10:43:47;;;;;;;3.20;2.90;;;;;;;24.77;58.81;96247.28;1708077;83;21049;-83
2022/06/07 10:46:15;;;;;;;3.90;3.60;;;;;;;24.75;59.37;96244.91;1705944;83;21326;-83
2022/06/07 10:49:10;;;;;;;3.15;2.85;;;;;;;24.73;60.07;96229.78;1702169;82;21048;-83
2022/06/07 10:54:33;;;;;;;3.08;2.87;;;;;;;24.98;57.08;96221.37;1731460;82;21002;-83
2022/06/07 10:57:16;;;;;;;3.83;3.00;;;;;;;25.12;59.49;96219.16;1707484;83;21054;-82
2022/06/07 10:59:42;;;;;;;3.33;2.90;;;;;;;25.27;58.62;96226.22;1711286;83;21018;-84
2022/06/07 11:02:19;;;;;;;3.20;2.90;;;;;;;25.38;56.62;96219.76;1731550;82;20951;-83
2022/06/07 11:10:45;;;;;;;4.62;2.80;;;;;;;25.55;54.43;96210.56;1705907;83;21396;-83
2022/06/07 11:13:42;;;;;;;3.27;3.08;;;;;;;25.59;56.40;96208.92;1725336;82;20985;-83
2022/06/07 11:16:22;;;;;;;2.85;2.65;;;;;;;25.42;56.31;96201.37;1724573;82;21022;-83
2022/06/07 11:18:48;;;;;;;2.72;2.52;;;;;;;25.39;56.39;96214.69;1712201;83;20978;-83
2022/06/07 11:21:36;;;;;;;3.08;2.80;;;;;;;25.49;55.06;96205.81;1706546;83;21113;-83
2022/06/07 11:24:31;;;;;;;3.75;2.87;;;;;;;25.62;54.57;96197.17;1711724;82;20950;-83
2022/06/07 11:27:13;;;;;;;3.40;3.10;;;;;;;25.45;52.29;96196.81;1729430;82;21125;-83
2022/06/07 11:29:39;;;;;;;3.67;2.80;;;;;;;25.45;52.29;96196.81;1706343;83;21421;-83
2022/06/07 11:32:30;;;;;;;3.10;2.75;;;;;;;25.19;53.03;96198.09;1725247;82;20985;-83
2022/06/07 11:34:56;;;;;;;3.08;2.72;;;;;;;25.29;53.18;96193.50;1726315;82;21352;-83
2022/06/07 11:37:25;;;;;;;3.30;2.80;;;;;;;25.36;55.35;96192.63;1708730;82;20926;-83
2022/06/07 11:39:56;;;;;;;2.87;2.40;;;;;;;25.47;53.22;96186.68;1726319;82;20964;-83
2022/06/07 11:42:34;;;;;;;3.92;3.05;;;;;;;25.40;54.76;96180.38;1725406;82;21359;-83
2022/06/07 11:45:25;;;;;;;2.95;2.65;;;;;;;25.37;54.00;96178.25;1709073;83;21365;-83
2022/06/07 11:48:18;;;;;;;2.87;2.27;;;;;;;25.37;54.00;96178.25;1708195;83;20994;-83
2022/06/07 11:51:13;;;;;;;3.20;2.55;;;;;;;25.46;53.31;96174.99;1706041;82;21026;-83
2022/06/07 11:53:44;;;;;;;3.95;2.50;;;;;;;25.45;53.95;96174.20;1703648;83;21469;-83
2022/06/07 11:56:34;;;;;;;3.00;2.80;;;;;;;25.33;53.55;96167.92;1709808;83;21022;-83
2022/06/07 11:59:20;;;;;;;2.87;2.58;;;;;;;25.22;55.12;96166.45;1718938;83;21376;-83
2022/06/07 12:01:56;;;;;;;2.90;2.70;;;;;;;25.28;54.20;96164.53;1725767;82;20962;-83
2022/06/07 12:04:44;;;;;;;3.00;2.80;;;;;;;24.94;55.25;96160.54;1721042;82;21345;-83
2022/06/07 12:07:32;;;;;;;3.22;2.80;;;;;;;24.94;55.25;96160.54;1709720;83;20990;-83
2022/06/07 12:10:02;;;;;;;2.95;2.75;;;;;;;24.86;54.87;96169.88;1728344;82;20971;-84
2022/06/07 12:12:36;;;;;;;2.77;2.58;;;;;;;24.74;54.23;96159.63;1665152;83;21397;-83
2022/06/07 12:15:21;;;;;;;3.02;2.47;;;;;;;24.66;53.65;96160.73;1721664;82;21074;-83